FRSO2: Muddy Boggy Cr, Farris, OK

Data processed at Wed Jun 19 2019 23:50


All information presented herein is the property of the government of the United States of America and may be revised or deleted at any time without prior notice.
Dissemination of this information without the expressed written consent of the Public Affairs Office, Tulsa District U.S. Army Corps of Engineers is strictly prohibited.
These data are gathered electronically and, as presented, have not undergone any form of quality control. These data are not guaranteed to be valid or correct.
Go to home page.
Go to station list.
Go to home page.

Upstream stations:

Downstream station:
Previous Day
Next Day
Current Day
    
SHEF ID:       FRSO2     Muddy Boggy Creek near Farris, O
STATION TYPE:  
Regulating: Stage =    43.00, Flow =    20800

               PRECIP PRECIP(A)     STAGE  RIV-FLOW  BAT-LOAD
                   in        in        ft       cfs      volt
              Ccp-Rev   Ccp-Rev   Ccp-Rev   Ccp-Rev   Ccp-Rev
(US/Central)
06/19 00:00      0.00      ----     12.77       660     11.77
06/19 01:00      0.00      ----     12.70       642     11.77
06/19 02:00      0.00      ----     12.61       620     11.77
06/19 03:00      0.00      ----     12.63       625     11.77
06/19 04:00      0.75      ----     12.96       704     11.77
06/19 05:00      0.01      ----     13.38       789     11.77
06/19 06:00      0.00      ----     14.05       931     11.77
06/19 07:00      0.00      ----     14.71      1080     11.77
06/19 08:00      0.00      ----     15.07      1170     11.77
06/19 09:00      0.00      ----     15.19      1200     11.93
06/19 10:00      0.00      ----     15.38      1250     12.09
06/19 11:00      0.00      ----     15.51      1290     12.09
06/19 12:00      0.00      ----     15.61      1310     12.09
06/19 13:00      0.00      ----     15.72      1340     12.01
06/19 14:00      0.00      ----     15.92      1400     12.01
06/19 15:00      0.00      ----     16.22      1480     12.01
06/19 16:00      0.00      ----     16.54      1580     12.01
06/19 17:00      0.00      ----     16.84      1670     12.01
06/19 18:00      0.00      ----     17.06      1730     12.01
06/19 19:00      0.00      ----     17.23      1780     12.01
06/19 20:00      0.00      ----     17.33      1820     11.93
06/19 21:00      0.00      ----     17.39      1840     11.93
06/19 22:00      0.00      ----     17.37      1830     11.93
06/19 23:00      0.00      ----     17.31      1810     11.93